Terminal Aerodrome Forecast
Issued by NWS Cheyenne, WY

Home | Current Version | Previous Version | Text Only | Print | Product List | Glossary On
Versions: 1 2 3 4 5 6 7 8 9 10 11 12 13 14 15 16 17 18 19 20 21 22 23 24 25 26 27 28 29 30 31 32 33 34 35 36
000
FTUS45 KCYS 190114 AAA
TAFCYS
TAF AMD
KCYS 190114Z 1901/1924 34015G22KT P6SM VCSH FEW025 SCT100
     FM190300 35016G27KT P6SM VCSH BKN015
     FM190500 36020G30KT 5SM -RASN BR OVC007=

USA.gov is the U.S. government's official web portal to all federal, state and local government web resources and services.